createdAt,value
2022-12-15T00:06:51.662Z,4.40
2022-12-15T00:12:14.793Z,4.30
2022-12-15T00:17:36.078Z,3.50
2022-12-15T00:22:56.988Z,4.17
2022-12-15T00:28:20.139Z,4.17
2022-12-15T00:33:41.041Z,5.90
2022-12-15T00:38:45.293Z,8.67
2022-12-15T00:43:50.234Z,7.50
2022-12-15T00:48:53.811Z,4.30
2022-12-15T00:54:18.075Z,5.20
2022-12-15T00:59:40.853Z,3.70
2022-12-15T01:05:01.719Z,2.40
2022-12-15T01:10:23.104Z,4.67
2022-12-15T01:15:45.936Z,5.30
2022-12-15T01:20:56.579Z,4.90
2022-12-15T01:26:00.204Z,4.23
2022-12-15T01:31:11.583Z,3.87
2022-12-15T01:36:15.298Z,4.33
2022-12-15T01:41:19.062Z,4.70
2022-12-15T01:46:25.720Z,5.37
2022-12-15T01:51:34.859Z,4.97
2022-12-15T01:56:40.979Z,5.23
2022-12-15T02:01:49.775Z,7.03
2022-12-15T02:06:54.108Z,6.67
2022-12-15T02:12:11.339Z,7.37
2022-12-15T02:17:25.844Z,7.70
2022-12-15T02:22:46.160Z,4.90
2022-12-15T02:27:57.737Z,6.77
2022-12-15T02:33:11.357Z,7.27
2022-12-15T02:38:15.150Z,4.67
2022-12-15T02:43:18.764Z,6.67
2022-12-15T02:48:31.802Z,10.13
2022-12-15T02:54:01.346Z,7.17
2022-12-15T02:59:11.890Z,9.30
2022-12-15T03:04:17.562Z,7.37
2022-12-15T03:09:21.164Z,8.03
2022-12-15T03:14:25.422Z,9.80
2022-12-15T03:19:30.399Z,8.77
2022-12-15T03:24:34.002Z,8.17
2022-12-15T03:29:37.560Z,6.00
2022-12-15T03:34:42.747Z,5.70
2022-12-15T03:39:46.310Z,6.40
2022-12-15T03:44:50.170Z,5.43
2022-12-15T03:49:55.131Z,7.03
2022-12-15T03:54:58.704Z,4.30
2022-12-15T04:00:02.461Z,6.07
2022-12-15T04:05:20.878Z,5.10
2022-12-15T04:10:31.746Z,4.77
2022-12-15T04:15:39.095Z,6.47
2022-12-15T04:20:44.106Z,6.33
2022-12-15T04:26:05.227Z,5.93
2022-12-15T04:31:27.648Z,4.77
2022-12-15T04:36:51.660Z,4.40
2022-12-15T04:42:13.848Z,6.00
2022-12-15T04:47:34.944Z,4.27
2022-12-15T04:52:57.148Z,3.93
2022-12-15T04:58:23.399Z,4.40
2022-12-15T05:03:44.684Z,3.83
2022-12-15T05:09:07.185Z,5.93
2022-12-15T05:14:28.366Z,4.63
2022-12-15T05:19:49.712Z,4.07
2022-12-15T05:25:11.926Z,4.07
2022-12-15T05:30:33.012Z,3.27
2022-12-15T05:35:36.584Z,4.93
2022-12-15T05:40:41.530Z,4.90
2022-12-15T05:45:45.144Z,4.77
2022-12-15T05:50:48.724Z,6.73
2022-12-15T05:55:54.604Z,5.93
2022-12-15T06:01:04.761Z,4.47
2022-12-15T06:06:09.827Z,7.43
2022-12-15T06:11:16.453Z,8.60
2022-12-15T06:16:21.406Z,9.70
2022-12-15T06:21:27.436Z,11.47
2022-12-15T06:26:34.585Z,12.20
2022-12-15T06:31:39.018Z,11.30
2022-12-15T06:36:43.984Z,15.50
2022-12-15T06:41:48.886Z,14.47
2022-12-15T06:46:52.553Z,14.43
2022-12-15T06:51:56.181Z,16.13
2022-12-15T06:57:01.117Z,16.30
2022-12-15T07:02:04.918Z,12.93
2022-12-15T07:07:09.930Z,16.93
2022-12-15T07:12:14.887Z,10.77
2022-12-15T07:17:18.432Z,12.20
2022-12-15T07:22:22.698Z,14.47
2022-12-15T07:27:28.001Z,17.90
2022-12-15T07:32:31.533Z,16.13
2022-12-15T07:37:35.632Z,16.23
2022-12-15T07:42:40.796Z,14.73
2022-12-15T07:47:44.587Z,14.83
2022-12-15T07:52:48.289Z,12.90
2022-12-15T07:57:53.211Z,14.50
2022-12-15T08:02:56.890Z,14.43
2022-12-15T08:08:00.545Z,13.27
2022-12-15T08:13:05.451Z,16.67
2022-12-15T08:18:10.112Z,14.03
2022-12-15T08:23:13.762Z,22.13
2022-12-15T08:28:19.598Z,17.77
2022-12-15T08:33:23.219Z,20.20
2022-12-15T08:38:26.725Z,23.70
2022-12-15T08:43:32.160Z,17.00
2022-12-15T08:48:36.372Z,13.60
2022-12-15T08:53:40.034Z,13.47
2022-12-15T08:58:45.777Z,13.97
2022-12-15T09:03:50.069Z,16.47
2022-12-15T09:08:56.501Z,16.20
2022-12-15T09:14:01.604Z,13.70
2022-12-15T09:19:05.734Z,14.27
2022-12-15T09:24:16.469Z,13.73
2022-12-15T09:29:27.291Z,13.17
2022-12-15T09:34:30.921Z,13.20
2022-12-15T09:39:34.473Z,12.23
2022-12-15T09:44:40.251Z,15.70
2022-12-15T09:49:51.881Z,17.13
2022-12-15T09:54:55.854Z,15.97
2022-12-15T10:00:12.766Z,15.20
2022-12-15T10:05:50.007Z,15.50
2022-12-15T10:10:56.688Z,13.40
2022-12-15T10:16:06.733Z,12.50
2022-12-15T10:21:14.227Z,13.77
2022-12-15T10:26:21.304Z,17.33
2022-12-15T10:31:34.571Z,12.70
2022-12-15T10:36:38.610Z,10.13
2022-12-15T10:41:42.252Z,11.73
2022-12-15T10:46:47.316Z,9.43
2022-12-15T10:51:57.188Z,11.77
2022-12-15T10:57:04.195Z,9.03
2022-12-15T11:02:29.632Z,9.73
2022-12-15T11:07:39.569Z,10.47
2022-12-15T11:12:52.356Z,12.87
2022-12-15T11:18:12.651Z,17.07
2022-12-15T11:23:22.540Z,17.77
2022-12-15T11:28:33.961Z,11.83
2022-12-15T11:33:39.399Z,13.27
2022-12-15T11:38:47.515Z,16.83
2022-12-15T11:44:06.673Z,15.40
2022-12-15T11:49:45.783Z,15.63
2022-12-15T11:54:56.871Z,13.57
2022-12-15T12:00:07.261Z,11.77
2022-12-15T12:05:37.054Z,11.63
2022-12-15T12:10:50.754Z,14.60
2022-12-15T12:16:03.041Z,10.00
2022-12-15T12:21:11.644Z,11.30
2022-12-15T12:26:24.685Z,11.53
2022-12-15T12:31:41.751Z,13.27
2022-12-15T12:36:50.016Z,10.30
2022-12-15T12:42:01.615Z,14.23
2022-12-15T12:47:13.025Z,10.97
2022-12-15T12:52:23.587Z,9.40
2022-12-15T12:57:38.841Z,9.47
2022-12-15T13:02:48.898Z,15.03
2022-12-15T13:08:29.371Z,17.03
2022-12-15T13:19:09.748Z,10.83
2022-12-15T13:24:28.860Z,12.03
2022-12-15T13:29:32.552Z,14.50
2022-12-15T13:34:39.560Z,9.67
2022-12-15T13:39:58.839Z,7.27
2022-12-15T13:45:39.668Z,9.90
2022-12-15T13:50:52.247Z,8.57
2022-12-15T13:56:06.973Z,14.23
2022-12-15T14:01:23.963Z,8.43
2022-12-15T14:06:35.945Z,7.50
2022-12-15T14:11:58.347Z,9.03
2022-12-15T14:17:07.629Z,5.67
2022-12-15T14:27:50.785Z,5.90
2022-12-15T14:32:59.063Z,6.47
2022-12-15T14:38:07.013Z,6.23
2022-12-15T14:43:20.187Z,6.53
2022-12-15T14:48:44.846Z,6.53
2022-12-15T14:53:53.250Z,6.37
2022-12-15T14:59:03.646Z,6.90
2022-12-15T15:03:05.231Z,12.17
2022-12-15T15:04:22.698Z,4.97
2022-12-15T15:09:28.566Z,5.97
2022-12-15T15:14:38.765Z,7.43
2022-12-15T15:19:51.719Z,5.30
2022-12-15T15:24:55.282Z,4.40
2022-12-15T15:30:18.387Z,6.17
2022-12-15T15:35:23.075Z,8.10
2022-12-15T15:40:26.676Z,6.70
2022-12-15T15:45:31.803Z,6.33
2022-12-15T15:50:35.669Z,7.43
2022-12-15T15:55:40.505Z,7.00
2022-12-15T16:00:45.781Z,6.43
2022-12-15T16:05:50.184Z,5.40
2022-12-15T16:10:54.053Z,5.77
2022-12-15T16:15:59.156Z,6.10
2022-12-15T16:21:02.799Z,5.70
2022-12-15T16:26:06.800Z,6.03
2022-12-15T16:31:16.799Z,5.87
2022-12-15T16:36:20.536Z,6.33
2022-12-15T16:41:27.629Z,5.77
2022-12-15T16:46:32.699Z,6.00
2022-12-15T16:51:39.853Z,5.90
2022-12-15T16:56:43.548Z,7.33
2022-12-15T17:01:49.117Z,5.50
2022-12-15T17:06:53.109Z,7.67
2022-12-15T17:11:57.589Z,7.60
2022-12-15T17:17:03.582Z,8.03
2022-12-15T17:22:07.082Z,7.43
2022-12-15T17:27:18.828Z,6.13
2022-12-15T17:32:23.773Z,5.97
2022-12-15T17:37:33.477Z,6.40
2022-12-15T17:42:38.804Z,8.17
2022-12-15T17:47:43.710Z,8.10
2022-12-15T17:52:49.440Z,7.17
2022-12-15T17:57:55.431Z,7.93
2022-12-15T18:03:01.879Z,6.60
2022-12-15T18:08:15.142Z,7.27
2022-12-15T18:13:21.540Z,6.83
2022-12-15T18:18:27.530Z,6.13
2022-12-15T18:23:32.225Z,6.13
2022-12-15T18:28:36.748Z,7.20
2022-12-15T18:33:41.741Z,7.67
2022-12-15T18:38:45.616Z,8.67
2022-12-15T18:43:58.539Z,8.57
2022-12-15T18:49:03.798Z,7.83
2022-12-15T18:54:07.499Z,6.37
2022-12-15T18:59:15.642Z,5.97
2022-12-15T19:04:20.766Z,6.20
2022-12-15T19:09:24.430Z,7.37
2022-12-15T19:14:43.360Z,8.50
2022-12-15T19:20:05.871Z,7.47
2022-12-15T19:25:12.728Z,7.07
2022-12-15T19:30:18.211Z,8.50
2022-12-15T19:35:24.271Z,11.40
2022-12-15T19:40:30.709Z,10.03
2022-12-15T19:45:34.658Z,8.10
2022-12-15T19:50:41.662Z,8.37
2022-12-15T19:55:45.850Z,9.43
2022-12-15T20:00:49.933Z,8.17
2022-12-15T20:05:57.106Z,9.33
2022-12-15T20:11:00.893Z,6.50
2022-12-15T20:16:04.686Z,8.30
2022-12-15T20:21:10.588Z,10.17
2022-12-15T20:26:17.432Z,8.80
2022-12-15T20:31:24.221Z,7.73
2022-12-15T20:36:31.530Z,8.47
2022-12-15T20:41:35.194Z,7.23
2022-12-15T20:46:39.006Z,6.13
2022-12-15T20:51:44.822Z,7.37
2022-12-15T20:56:49.501Z,5.23
2022-12-15T21:01:54.963Z,6.20
2022-12-15T21:07:00.161Z,7.33
2022-12-15T21:12:09.038Z,8.90
2022-12-15T21:17:16.311Z,7.97
2022-12-15T21:22:24.821Z,8.23
2022-12-15T21:27:28.789Z,6.23
2022-12-15T21:32:32.603Z,6.23
2022-12-15T21:37:37.838Z,7.57
2022-12-15T21:42:41.421Z,8.00
2022-12-15T21:48:02.821Z,7.07
2022-12-15T21:53:10.492Z,6.87
2022-12-15T21:58:20.210Z,7.13
2022-12-15T22:03:23.827Z,9.97
2022-12-15T22:08:29.207Z,7.37
2022-12-15T22:13:33.212Z,8.83
2022-12-15T22:18:37.146Z,7.87
2022-12-15T22:23:42.160Z,7.17
2022-12-15T22:28:45.818Z,7.37
2022-12-15T22:33:49.844Z,10.23
2022-12-15T22:38:54.777Z,10.17
2022-12-15T22:43:58.767Z,8.03
2022-12-15T22:49:03.031Z,7.77
2022-12-15T22:54:18.791Z,8.27
2022-12-15T22:59:27.831Z,6.03
2022-12-15T23:04:31.811Z,9.07
2022-12-15T23:09:37.104Z,7.43
2022-12-15T23:15:03.542Z,9.23
2022-12-15T23:20:08.084Z,11.00
2022-12-15T23:25:13.234Z,12.80
2022-12-15T23:30:17.259Z,15.17
2022-12-15T23:35:21.150Z,17.40
2022-12-15T23:40:26.191Z,12.17
2022-12-15T23:45:29.901Z,9.90
2022-12-15T23:50:33.549Z,9.07
2022-12-15T23:55:38.720Z,10.20
